Decoded METAR's for Botswana

 
 
Print Page

Back to Weather Page

 
 

Francistown - Botswana, FBFT

ADDS - TAFS form results

Aviation Digital Data Service (ADDS)

Output produced by TAFs form (0733 UTC 24 November 2017)
found at http://aviationweather.gov/adds/tafs/
 
METAR text: FBFT 240700Z 09012KT 030V120 CAVOK 24/14 Q1020
Conditions at: FBFT (FRANCISTOWN , BW) observed 0700 UTC 24 November 2017
Temperature: 24.0°C (75°F)
Dewpoint: 14.0°C (57°F) [RH = 54%]
Pressure (altimeter): 30.12 inches Hg (1020.0 mb)
Winds: from the E (90 degrees) at 14 MPH (12 knots; 6.2 m/s)
Visibility: 6 or more miles (10+ km)
Ceiling: ceiling and visibility are OK
Clouds: unknown
Weather: no significant weather observed at this time

Array
Ghanzi - Botswana, FBGZ

ADDS - TAFS form results

Aviation Digital Data Service (ADDS)

Output produced by TAFs form (0733 UTC 24 November 2017)
found at http://aviationweather.gov/adds/tafs/
 
You entered "FBGZ"

Sorry, either there are no data available for your request or you did not enter any valid ICAO airport abbreviations.

See stations.txt for a list of known METAR and TAF locations. Then go back to the ADDS METARs or TAFs page and try again
 
Please try again and, if problems persist, then send mail to ncep.awc.adds@noaa.gov
Array
Kasane - Botswana, FBKE

ADDS - TAFS form results

Aviation Digital Data Service (ADDS)

Output produced by TAFs form (0733 UTC 24 November 2017)
found at http://aviationweather.gov/adds/tafs/
 
METAR text: FBKE 240700Z 03008KT 360V060 9999 FEW025 24/18 Q1019
Conditions at: FBKE (KASANE , BW) observed 0700 UTC 24 November 2017
Temperature: 24.0°C (75°F)
Dewpoint: 18.0°C (64°F) [RH = 69%]
Pressure (altimeter): 30.09 inches Hg (1019.0 mb)
Winds: from the NNE (30 degrees) at 9 MPH (8 knots; 4.2 m/s)
Visibility: 6 or more miles (10+ km)
Ceiling: at least 12,000 feet AGL
Clouds: few clouds at 2500 feet AGL
Weather: no significant weather observed at this time

Array
Maun - Botswana, FBMN

ADDS - TAFS form results

Aviation Digital Data Service (ADDS)

Output produced by TAFs form (0733 UTC 24 November 2017)
found at http://aviationweather.gov/adds/tafs/
 
METAR text: FBMN 240700Z 04012KT CAVOK 28/17 Q1017
Conditions at: FBMN (MAUN , BW) observed 0700 UTC 24 November 2017
Temperature: 28.0°C (82°F)
Dewpoint: 17.0°C (63°F) [RH = 51%]
Pressure (altimeter): 30.03 inches Hg (1017.0 mb)
Winds: from the NE (40 degrees) at 14 MPH (12 knots; 6.2 m/s)
Visibility: 6 or more miles (10+ km)
Ceiling: ceiling and visibility are OK
Clouds: unknown
Weather: no significant weather observed at this time

Array
Gaberone Sir Seretsi Kama - Botswana, FBSK

ADDS - TAFS form results

Aviation Digital Data Service (ADDS)

Output produced by TAFs form (0733 UTC 24 November 2017)
found at http://aviationweather.gov/adds/tafs/
 
METAR text: FBSK 240700Z /////KT CAVOK 24/// Q1020 NOSIG
Conditions at: FBSK (SIR SERETSE KHAM, BW) observed 0700 UTC 24 November 2017
Temperature: missing
Dewpoint: missing
Pressure (altimeter): 30.12 inches Hg (1020.0 mb)
Winds: missing
Visibility: 6 or more miles (10+ km)
Ceiling: ceiling and visibility are OK
Clouds: unknown
Weather: no significant weather observed at this time

Array
Selebi Phikwe - Botswana, FBSP

ADDS - TAFS form results

Aviation Digital Data Service (ADDS)

Output produced by TAFs form (0733 UTC 24 November 2017)
found at http://aviationweather.gov/adds/tafs/
 
METAR text: FBSP 240700Z 08005KT 9999 OVC020 22/16 Q1021
Conditions at: FBSP (SELEBI PHIKWE , BW) observed 0700 UTC 24 November 2017
Temperature: 22.0°C (72°F)
Dewpoint: 16.0°C (61°F) [RH = 69%]
Pressure (altimeter): 30.15 inches Hg (1021.0 mb)
Winds: from the E (80 degrees) at 6 MPH (5 knots; 2.6 m/s)
Visibility: 6 or more miles (10+ km)
Ceiling: 2000 feet AGL
Clouds: overcast cloud deck at 2000 feet AGL
Weather: no significant weather observed at this time

Array